Time;durP1;ratioP1;P1;durP2;ratioP2;P2;SDS_P1;SDS_P2;PMS_P1;PMS_P2;Temp;Humidity;BMP_temperature;BMP_pressure;BME280_temperature;BME280_humidity;BME280_pressure;Samples;Min_cycle;Max_cycle;Signal;HPM_P1;HPM_P2
2022/10/03 00:02:18;;;;;;;2.90;2.70;;;;;;;5.47;100.00;100898.69;4973450;28;20047;-78
2022/10/03 00:04:55;;;;;;;3.67;3.13;;;;;;;5.47;100.00;100901.34;4974844;28;20048;-77
2022/10/03 00:07:21;;;;;;;3.43;3.13;;;;;;;5.43;100.00;100895.47;4974711;28;20054;-74
2022/10/03 00:09:46;;;;;;;2.30;2.10;;;;;;;5.40;100.00;100895.72;4974443;28;20359;-75
2022/10/03 00:12:46;;;;;;;2.20;2.00;;;;;;;5.42;100.00;100903.53;4974685;28;20042;-77
2022/10/03 00:15:20;;;;;;;2.53;2.33;;;;;;;5.42;100.00;100898.25;4974599;28;20034;-75
2022/10/03 00:17:58;;;;;;;2.63;2.43;;;;;;;5.44;100.00;100901.59;4974434;28;20031;-75
2022/10/03 00:20:52;;;;;;;2.33;2.13;;;;;;;5.48;100.00;100900.38;4974676;28;20038;-78
2022/10/03 00:23:27;;;;;;;2.10;1.90;;;;;;;5.45;100.00;100900.63;4968298;28;20549;-75
2022/10/03 00:26:27;;;;;;;2.87;2.57;;;;;;;5.48;100.00;100897.72;4974037;28;20490;-76
2022/10/03 00:29:27;;;;;;;2.73;2.53;;;;;;;5.45;100.00;100887.44;4974243;28;20045;-75
2022/10/03 00:32:19;;;;;;;2.97;2.67;;;;;;;5.48;100.00;100892.44;4974208;28;20406;-76
2022/10/03 00:35:22;;;;;;;4.83;3.00;;;;;;;5.56;100.00;100895.31;4974253;28;20031;-74
2022/10/03 00:38:10;;;;;;;4.03;2.80;;;;;;;5.59;100.00;100900.34;4974113;28;20045;-74
2022/10/03 00:40:57;;;;;;;5.32;2.88;;;;;;;5.48;100.00;100871.31;4973837;28;20034;-73
2022/10/03 00:43:49;;;;;;;2.43;2.23;;;;;;;5.56;100.00;100895.31;4972890;28;20034;-79
2022/10/03 00:46:46;;;;;;;2.53;2.33;;;;;;;5.56;100.00;100893.50;4974026;28;20125;-78
2022/10/03 00:49:33;;;;;;;2.27;2.07;;;;;;;5.56;100.00;100896.16;4973798;28;20045;-79
2022/10/03 00:52:11;;;;;;;2.00;1.90;;;;;;;5.55;100.00;100894.47;4973878;28;20026;-77
2022/10/03 00:54:58;;;;;;;2.60;2.17;;;;;;;5.59;100.00;100889.78;4973919;28;20182;-75
2022/10/03 00:57:26;;;;;;;2.27;2.07;;;;;;;5.56;100.00;100884.75;4973892;28;20033;-78
2022/10/03 01:00:16;;;;;;;2.67;1.92;;;;;;;5.56;100.00;100882.13;4973759;28;20034;-77
2022/10/03 01:03:01;;;;;;;2.33;2.13;;;;;;;5.52;100.00;100878.06;4988605;28;20052;-76
2022/10/03 01:05:51;;;;;;;2.40;2.20;;;;;;;5.61;100.00;100877.28;4993138;28;20121;-74
2022/10/03 01:08:34;;;;;;;2.50;2.30;;;;;;;5.66;100.00;100880.38;4993290;28;20092;-77
2022/10/03 01:11:38;;;;;;;3.57;2.17;;;;;;;5.67;100.00;100876.75;4992999;28;20466;-76
2022/10/03 01:14:36;;;;;;;2.77;2.10;;;;;;;5.68;100.00;100877.59;4962591;28;20038;-77
2022/10/03 01:17:25;;;;;;;2.53;2.33;;;;;;;5.65;100.00;100878.69;4993088;28;20027;-77
2022/10/03 01:20:15;;;;;;;2.97;2.63;;;;;;;5.70;100.00;100875.66;4992378;28;20034;-76
2022/10/03 01:23:06;;;;;;;2.37;2.17;;;;;;;5.71;100.00;100870.25;4993497;28;20061;-77
2022/10/03 01:26:05;;;;;;;2.40;2.20;;;;;;;5.73;100.00;100870.97;4993469;28;20109;-77
2022/10/03 01:31:33;;;;;;;;;;;;;;;5.77;100.00;100859.16;4993462;28;20392;-77
2022/10/03 01:34:06;;;;;;;2.90;2.70;;;;;;;5.77;100.00;100866.25;4993042;28;20004;-77
2022/10/03 01:36:47;;;;;;;2.40;2.20;;;;;;;5.57;100.00;100834.44;4993030;28;20026;-77
2022/10/03 01:39:24;;;;;;;5.07;2.63;;;;;;;5.71;100.00;100864.97;4993075;28;20108;-77
2022/10/03 01:41:57;;;;;;;2.53;2.33;;;;;;;5.70;100.00;100855.38;4993060;28;20038;-75
2022/10/03 01:44:52;;;;;;;3.20;2.90;;;;;;;5.72;100.00;100858.72;4975334;28;20026;-77
2022/10/03 01:47:30;;;;;;;3.57;2.37;;;;;;;5.77;100.00;100866.25;4992549;28;20041;-75
2022/10/03 01:50:16;;;;;;;3.28;2.67;;;;;;;5.74;100.00;100871.78;4992970;28;20038;-75
2022/10/03 01:52:51;;;;;;;2.50;2.30;;;;;;;5.74;100.00;100870.00;4992843;28;20062;-76
2022/10/03 01:55:29;;;;;;;3.63;2.40;;;;;;;5.69;100.00;100866.06;4992941;28;20085;-77
2022/10/03 01:58:03;;;;;;;4.18;2.35;;;;;;;5.69;100.00;100869.53;4992728;28;20041;-76
2022/10/03 02:00:40;;;;;;;3.07;2.80;;;;;;;5.61;100.00;100864.06;4992837;28;20026;-77
2022/10/03 02:03:38;;;;;;;2.90;2.70;;;;;;;5.64;100.00;100861.16;4992598;28;20054;-76
2022/10/03 02:06:09;;;;;;;4.10;2.88;;;;;;;5.75;100.00;100878.75;4995348;28;20034;-78
2022/10/03 02:09:26;;;;;;;3.73;2.70;;;;;;;5.73;100.00;100870.97;4996261;28;20030;-78
2022/10/03 02:12:06;;;;;;;3.07;2.77;;;;;;;5.77;100.00;100875.00;4964031;28;20103;-77
2022/10/03 02:14:37;;;;;;;3.97;3.00;;;;;;;5.79;100.00;100867.81;4996224;28;20528;-76
2022/10/03 02:17:21;;;;;;;3.20;2.90;;;;;;;5.82;100.00;100870.22;4979060;28;20101;-77
2022/10/03 02:19:56;;;;;;;3.70;3.37;;;;;;;5.82;100.00;100870.22;4996038;28;20041;-76
2022/10/03 02:22:31;;;;;;;3.27;2.97;;;;;;;5.77;100.00;100859.16;4996332;28;20034;-75
2022/10/03 02:25:31;;;;;;;5.30;2.97;;;;;;;5.83;100.00;100861.31;4995681;28;20544;-76
2022/10/03 02:28:29;;;;;;;3.27;2.97;;;;;;;5.86;100.00;100868.13;4996103;28;20137;-78
2022/10/03 02:31:19;;;;;;;3.05;2.80;;;;;;;5.89;100.00;100865.22;5005798;28;20027;-75
2022/10/03 02:33:48;;;;;;;3.93;3.00;;;;;;;5.88;100.00;100853.81;4989113;28;20042;-76
2022/10/03 02:36:19;;;;;;;2.80;2.60;;;;;;;5.88;100.00;100860.91;5006735;28;20026;-75
2022/10/03 02:39:09;;;;;;;3.20;2.90;;;;;;;5.92;100.00;100858.88;4983045;28;20029;-75
2022/10/03 02:41:56;;;;;;;2.80;2.60;;;;;;;5.96;100.00;100860.28;5003104;28;20030;-76
2022/10/03 02:44:47;;;;;;;2.87;2.57;;;;;;;5.95;100.00;100866.53;4996123;28;20062;-75
2022/10/03 02:47:37;;;;;;;2.87;2.60;;;;;;;5.98;100.00;100864.47;4996601;28;20427;-75
2022/10/03 02:50:08;;;;;;;2.37;2.17;;;;;;;5.99;100.00;100870.59;4995638;28;20034;-77
2022/10/03 02:53:25;;;;;;;2.43;2.23;;;;;;;6.02;100.00;100871.16;4995597;28;20037;-75
2022/10/03 02:56:14;;;;;;;3.03;2.73;;;;;;;6.03;100.00;100867.56;4952241;28;20377;-77
2022/10/03 02:59:13;;;;;;;3.60;2.20;;;;;;;6.03;100.00;100856.97;4995770;28;20034;-77
2022/10/03 03:02:03;;;;;;;2.70;2.50;;;;;;;6.04;100.00;100863.09;4995296;28;20057;-76
2022/10/03 03:04:57;;;;;;;2.87;2.60;;;;;;;6.07;100.00;100858.41;4995487;28;20038;-73
2022/10/03 03:08:18;;;;;;;2.20;2.00;;;;;;;6.09;100.00;100863.56;4995321;28;20037;-75
2022/10/03 03:11:07;;;;;;;2.83;2.53;;;;;;;6.10;100.00;100868.72;4881503;29;20424;-76
2022/10/03 03:13:58;;;;;;;2.60;2.40;;;;;;;6.08;100.00;100865.38;4990128;28;20368;-76
2022/10/03 03:16:33;;;;;;;3.73;2.40;;;;;;;6.10;100.00;100859.97;4994611;28;20551;-77
2022/10/03 03:19:29;;;;;;;3.33;3.03;;;;;;;6.12;100.00;100865.97;4994995;28;20053;-76
2022/10/03 03:22:04;;;;;;;3.07;2.77;;;;;;;6.12;100.00;100860.66;4995587;28;20035;-77
2022/10/03 03:25:11;;;;;;;3.17;2.97;;;;;;;6.08;100.00;100854.81;4995091;28;20026;-75
2022/10/03 03:27:57;;;;;;;2.90;2.60;;;;;;;6.08;100.00;100854.81;4994942;28;20487;-77
2022/10/03 03:30:29;;;;;;;3.00;2.70;;;;;;;6.14;100.00;100861.38;4977285;28;20053;-76
2022/10/03 03:33:22;;;;;;;3.07;2.77;;;;;;;6.17;100.00;100869.03;4995119;28;20030;-77
2022/10/03 03:36:10;;;;;;;3.03;2.40;;;;;;;6.18;100.00;100870.72;4994461;28;20561;-76
2022/10/03 03:38:52;;;;;;;3.07;2.87;;;;;;;6.13;100.00;100862.34;4977369;28;20081;-79
2022/10/03 03:41:35;;;;;;;2.70;2.50;;;;;;;6.18;100.00;100866.25;4994521;28;20041;-79
2022/10/03 03:44:05;;;;;;;3.10;2.80;;;;;;;6.20;100.00;100858.19;5002259;28;20026;-77
2022/10/03 03:46:49;;;;;;;2.90;2.60;;;;;;;6.20;100.00;100853.75;4999674;28;20030;-76
2022/10/03 03:49:40;;;;;;;3.13;2.93;;;;;;;6.17;100.00;100845.25;4997884;28;20510;-78
2022/10/03 03:52:18;;;;;;;2.67;2.47;;;;;;;6.21;100.00;100844.84;4977179;28;20116;-76
2022/10/03 03:55:03;;;;;;;2.35;2.15;;;;;;;6.22;100.00;100848.31;4994605;28;20616;-77
2022/10/03 03:57:52;;;;;;;2.97;2.70;;;;;;;6.22;100.00;100837.75;4994540;28;20117;-76
2022/10/03 04:00:29;;;;;;;3.97;3.05;;;;;;;6.23;100.00;100836.78;4994594;28;20035;-76
2022/10/03 04:03:44;;;;;;;3.13;2.53;;;;;;;6.29;100.00;100830.94;4994213;28;20050;-75
2022/10/03 04:06:16;;;;;;;3.33;3.03;;;;;;;6.18;100.00;100804.59;4986932;28;20038;-76
2022/10/03 04:09:00;;;;;;;3.30;2.40;;;;;;;6.36;100.00;100831.25;4993980;28;20069;-76
2022/10/03 04:11:35;;;;;;;2.40;2.20;;;;;;;6.38;100.00;100822.22;4994170;28;20080;-77
2022/10/03 04:14:18;;;;;;;3.00;2.70;;;;;;;6.41;100.00;100829.88;4993876;28;20374;-76
2022/10/03 04:20:21;;;;;;;3.57;2.37;;;;;;;6.44;100.00;100816.41;4994031;28;20069;-79
2022/10/03 04:23:11;;;;;;;3.50;2.67;;;;;;;6.44;100.00;100807.63;4984969;28;20482;-75
2022/10/03 04:26:14;;;;;;;4.27;2.30;;;;;;;6.47;100.00;100797.59;4994842;28;20076;-75
2022/10/03 04:28:55;;;;;;;3.17;2.77;;;;;;;6.47;100.00;100797.59;4958420;28;20038;-75
2022/10/03 04:31:29;;;;;;;2.93;2.57;;;;;;;6.44;100.00;100789.94;4976392;28;20470;-76
2022/10/03 04:34:13;;;;;;;6.50;2.83;;;;;;;6.50;100.00;100786.75;4993562;28;20645;-78
2022/10/03 04:36:55;;;;;;;2.05;1.90;;;;;;;6.55;100.00;100778.41;4976183;28;20066;-82
2022/10/03 04:39:44;;;;;;;2.53;2.30;;;;;;;6.56;99.63;100773.94;4993625;28;20034;-75
2022/10/03 04:42:25;;;;;;;;;;;;;;;6.56;99.46;100777.41;4969478;28;20130;-77
2022/10/03 04:45:22;;;;;;;2.93;2.67;;;;;;;6.60;98.88;100770.03;4993918;28;19996;-73
2022/10/03 04:47:56;;;;;;;3.33;2.73;;;;;;;6.63;98.68;100764.47;4993615;28;20022;-76
2022/10/03 04:50:43;;;;;;;8.60;2.83;;;;;;;6.65;98.58;100767.81;4994322;28;20026;-75
2022/10/03 04:53:20;;;;;;;2.90;2.60;;;;;;;6.68;98.47;100751.69;4994795;28;20061;-78
2022/10/03 04:56:02;;;;;;;3.80;3.17;;;;;;;6.69;98.51;100758.66;4996276;28;20030;-77
2022/10/03 04:58:38;;;;;;;2.60;2.40;;;;;;;6.67;97.74;100742.09;5016364;28;20026;-77
2022/10/03 05:01:32;;;;;;;2.22;2.08;;;;;;;6.67;97.69;100750.84;4999886;28;20046;-77
2022/10/03 05:04:25;;;;;;;1.90;1.80;;;;;;;6.69;96.32;100748.06;5016781;28;20073;-78
2022/10/03 05:06:57;;;;;;;5.60;2.50;;;;;;;6.77;96.12;100756.16;4999334;28;20077;-77
2022/10/03 05:09:32;;;;;;;3.47;2.20;;;;;;;6.78;96.30;100748.06;4997081;28;20080;-77
2022/10/03 05:12:16;;;;;;;2.13;1.90;;;;;;;6.81;94.39;100746.94;4997459;28;20030;-77
2022/10/03 05:14:58;;;;;;;2.47;2.27;;;;;;;6.69;93.59;100726.91;4995600;28;20444;-77
2022/10/03 05:17:41;;;;;;;4.17;2.20;;;;;;;6.86;91.95;100739.44;4994853;28;20030;-74
2022/10/03 05:20:30;;;;;;;3.00;1.83;;;;;;;6.85;91.07;100751.00;4994547;28;20084;-76
2022/10/03 05:23:28;;;;;;;2.07;1.90;;;;;;;6.83;90.56;100752.94;4993853;28;20022;-74
2022/10/03 05:26:26;;;;;;;3.47;1.92;;;;;;;6.83;89.53;100750.28;4993536;28;20042;-75
2022/10/03 05:29:36;;;;;;;2.92;2.03;;;;;;;6.69;89.65;100713.66;4992949;28;20121;-75
2022/10/03 05:32:19;;;;;;;4.07;1.97;;;;;;;6.87;89.12;100762.28;4974719;28;20027;-76
2022/10/03 05:35:00;;;;;;;2.30;2.10;;;;;;;6.91;88.69;100742.47;4992623;28;20061;-74
2022/10/03 05:37:29;;;;;;;1.97;1.87;;;;;;;6.87;87.11;100741.09;4982342;28;20138;-76
2022/10/03 05:40:00;;;;;;;3.28;1.92;;;;;;;6.89;87.01;100743.59;4976441;28;20041;-73
2022/10/03 05:42:45;;;;;;;2.10;1.90;;;;;;;6.92;86.04;100738.03;4977067;28;20035;-73
2022/10/03 05:45:35;;;;;;;1.73;1.63;;;;;;;6.93;84.20;100729.94;4977377;28;20589;-75
2022/10/03 05:48:26;;;;;;;3.07;2.13;;;;;;;6.93;84.06;100719.34;4960157;28;20076;-77
2022/10/03 05:50:55;;;;;;;3.40;2.27;;;;;;;6.91;82.71;100718.66;4976838;28;20038;-72
2022/10/03 05:53:48;;;;;;;3.20;2.05;;;;;;;6.93;83.48;100718.50;4976759;28;20027;-74
2022/10/03 05:56:49;;;;;;;3.33;2.00;;;;;;;6.91;81.97;100723.13;4976854;28;20027;-73
2022/10/03 05:59:51;;;;;;;5.17;1.90;;;;;;;6.93;82.87;100708.75;4939463;28;20043;-74
2022/10/03 06:03:00;;;;;;;2.30;2.10;;;;;;;6.96;82.09;100703.22;4976708;28;20105;-74
2022/10/03 06:05:45;;;;;;;4.50;2.13;;;;;;;6.99;81.09;100707.38;4975413;28;20035;-74
2022/10/03 06:08:43;;;;;;;3.60;1.80;;;;;;;7.06;81.38;100703.19;4958803;28;20034;-73
2022/10/03 06:11:46;;;;;;;2.92;2.72;;;;;;;7.11;81.36;100720.31;4959392;28;20422;-74
2022/10/03 06:14:40;;;;;;;1.80;1.70;;;;;;;7.09;80.89;100706.38;4976466;28;20035;-74
2022/10/03 06:17:23;;;;;;;4.30;1.67;;;;;;;7.18;81.33;100704.69;4977549;28;20098;-75
2022/10/03 06:20:10;;;;;;;2.37;1.87;;;;;;;7.18;80.38;100717.09;4976865;28;20038;-73
2022/10/03 06:23:12;;;;;;;2.27;1.70;;;;;;;7.19;79.94;100703.72;4976283;28;20039;-73
2022/10/03 06:26:07;;;;;;;4.87;2.10;;;;;;;7.15;79.44;100703.16;4976382;28;20125;-74
2022/10/03 06:28:50;;;;;;;3.73;2.83;;;;;;;7.12;79.44;100698.16;4976144;28;20046;-72
2022/10/03 06:31:42;;;;;;;2.40;2.20;;;;;;;7.15;78.51;100697.88;4976530;28;20041;-74
2022/10/03 06:34:56;;;;;;;2.00;1.80;;;;;;;7.21;78.16;100701.75;4976284;28;20031;-74
2022/10/03 06:37:37;;;;;;;2.20;1.63;;;;;;;7.19;77.77;100698.41;4891126;28;20041;-75
2022/10/03 06:40:40;;;;;;;3.47;1.90;;;;;;;7.25;77.45;100691.75;4976458;28;20042;-74
2022/10/03 06:43:23;;;;;;;2.57;2.00;;;;;;;7.22;76.24;100692.00;4958386;28;20035;-73
2022/10/03 06:46:14;;;;;;;2.27;1.70;;;;;;;7.24;77.26;100690.06;4975441;28;20355;-74
2022/10/03 06:49:08;;;;;;;3.83;2.10;;;;;;;7.25;77.09;100683.78;4975971;28;20030;-74
2022/10/03 06:51:40;;;;;;;2.80;2.07;;;;;;;7.26;76.47;100688.13;4975082;28;20027;-74
2022/10/03 06:54:52;;;;;;;3.53;1.90;;;;;;;7.27;76.15;100677.38;4975803;28;20023;-73
2022/10/03 06:57:47;;;;;;;3.67;2.40;;;;;;;7.28;76.74;100687.00;4976112;28;20035;-74
2022/10/03 07:00:20;;;;;;;3.73;1.53;;;;;;;7.31;75.74;100680.56;4927704;28;20474;-74
2022/10/03 07:03:24;;;;;;;6.20;1.90;;;;;;;7.38;75.79;100676.34;4975626;28;20051;-74
2022/10/03 07:06:03;;;;;;;3.20;2.10;;;;;;;7.41;76.29;100681.38;4973198;28;20486;-75
2022/10/03 07:08:50;;;;;;;2.08;1.80;;;;;;;7.46;74.17;100684.41;4975526;28;20049;-74
2022/10/03 07:11:42;;;;;;;2.30;1.92;;;;;;;7.50;73.26;100680.50;4975401;28;20486;-75
2022/10/03 07:14:22;;;;;;;4.93;1.53;;;;;;;7.40;74.81;100664.63;4958145;28;20039;-75
2022/10/03 07:17:07;;;;;;;5.00;1.80;;;;;;;7.53;73.88;100706.72;4975538;28;20058;-73
2022/10/03 07:19:41;;;;;;;9.77;1.83;;;;;;;7.45;73.95;100688.03;4975333;28;20078;-76
2022/10/03 07:22:38;;;;;;;2.70;1.90;;;;;;;7.44;74.00;100681.91;4975690;28;20035;-73
2022/10/03 07:25:25;;;;;;;2.97;2.23;;;;;;;7.48;73.54;100685.09;4975330;28;20030;-74
2022/10/03 07:28:44;;;;;;;4.03;1.60;;;;;;;7.48;73.51;100695.69;4975483;28;20089;-73
2022/10/03 07:31:15;;;;;;;3.40;1.70;;;;;;;7.43;73.61;100708.56;4878007;29;20052;-74
2022/10/03 07:34:17;;;;;;;3.73;1.60;;;;;;;7.40;74.73;100685.00;4970637;28;20042;-74
2022/10/03 07:40:23;;;;;;;4.10;2.13;;;;;;;7.36;75.63;100678.31;4975154;28;20121;-73
2022/10/03 07:43:27;;;;;;;2.40;2.00;;;;;;;7.37;75.76;100686.13;4974619;28;20493;-75
2022/10/03 07:46:07;;;;;;;4.53;1.70;;;;;;;7.35;75.75;100671.34;4975094;28;20182;-73
2022/10/03 07:48:42;;;;;;;3.27;1.60;;;;;;;7.23;76.17;100641.56;4975145;28;20042;-74
2022/10/03 07:51:22;;;;;;;7.27;1.80;;;;;;;7.32;76.46;100664.53;4957588;28;20034;-73
2022/10/03 07:54:33;;;;;;;10.80;2.27;;;;;;;7.33;77.56;100681.25;4974843;28;20466;-73
2022/10/03 07:57:21;;;;;;;2.80;2.20;;;;;;;7.07;78.46;100618.31;4948441;28;20118;-74
2022/10/03 07:59:56;;;;;;;2.88;2.08;;;;;;;7.38;78.96;100663.13;4974842;28;20053;-75
2022/10/03 08:03:02;;;;;;;1.63;1.53;;;;;;;7.39;79.12;100656.84;4973728;28;20050;-74
2022/10/03 08:05:46;;;;;;;2.60;2.40;;;;;;;7.44;79.62;100660.72;4974852;28;20387;-75
2022/10/03 08:08:18;;;;;;;2.80;1.80;;;;;;;7.44;80.02;100651.94;4975797;28;20031;-73
2022/10/03 08:11:05;;;;;;;6.50;1.97;;;;;;;7.46;79.98;100657.91;4977494;28;20371;-73
2022/10/03 08:13:58;;;;;;;2.30;1.73;;;;;;;7.51;80.20;100650.34;4960790;28;20027;-75
2022/10/03 08:16:57;;;;;;;2.77;1.97;;;;;;;7.50;79.83;100648.69;4965389;28;20027;-76
2022/10/03 08:19:28;;;;;;;1.85;1.75;;;;;;;7.53;80.75;100637.81;4984079;28;20036;-74
2022/10/03 08:22:38;;;;;;;2.10;1.90;;;;;;;7.51;80.90;100637.09;4983130;28;20077;-74
2022/10/03 08:25:25;;;;;;;2.07;1.97;;;;;;;7.51;80.46;100637.09;4945637;28;20459;-76
2022/10/03 08:28:22;;;;;;;1.93;1.70;;;;;;;7.49;81.42;100630.28;4965171;28;20022;-75
2022/10/03 08:31:24;;;;;;;10.10;1.70;;;;;;;7.50;80.63;100627.50;4983875;28;20035;-75
2022/10/03 08:33:52;;;;;;;1.90;1.47;;;;;;;7.54;80.80;100617.47;4986403;28;20386;-75
2022/10/03 08:36:37;;;;;;;3.92;1.75;;;;;;;7.57;80.46;100623.31;4980677;28;20030;-74
2022/10/03 08:39:05;;;;;;;7.47;2.30;;;;;;;7.55;80.48;100619.97;4988778;28;20030;-71
2022/10/03 08:42:03;;;;;;;3.30;1.50;;;;;;;7.54;80.93;100614.81;4988835;28;20098;-75
2022/10/03 08:44:41;;;;;;;1.85;1.63;;;;;;;7.55;81.64;100606.72;4988890;28;20041;-74
2022/10/03 08:47:28;;;;;;;2.60;2.08;;;;;;;7.54;80.98;100610.34;4986993;28;20041;-75
2022/10/03 08:50:23;;;;;;;2.27;1.93;;;;;;;7.55;81.83;100598.75;4987494;28;20031;-74
2022/10/03 08:53:27;;;;;;;3.27;1.80;;;;;;;7.60;80.99;100591.19;4984458;28;20129;-74
2022/10/03 08:56:16;;;;;;;1.93;1.80;;;;;;;7.58;81.02;100584.38;4974808;28;20206;-74
2022/10/03 08:59:03;;;;;;;2.87;1.80;;;;;;;7.56;80.60;100600.44;4975673;28;20034;-74
2022/10/03 09:01:38;;;;;;;4.13;1.93;;;;;;;7.60;81.16;100574.47;4977077;28;20482;-75
2022/10/03 09:04:37;;;;;;;1.87;1.77;;;;;;;7.66;80.66;100579.16;4977352;28;20069;-74
2022/10/03 09:07:14;;;;;;;1.93;1.83;;;;;;;7.76;80.05;100571.97;4979056;28;20043;-74
2022/10/03 09:10:37;;;;;;;4.70;2.43;;;;;;;7.85;79.83;100578.22;4976623;28;20050;-73
2022/10/03 09:13:56;;;;;;;2.27;2.07;;;;;;;7.83;79.97;100566.94;4876466;29;20491;-74
2022/10/03 09:16:54;;;;;;;2.03;1.73;;;;;;;7.81;79.82;100555.66;4876611;29;20418;-74
2022/10/03 09:19:22;;;;;;;3.03;2.03;;;;;;;7.83;80.30;100548.38;4973882;28;20133;-74
2022/10/03 09:22:08;;;;;;;4.53;2.47;;;;;;;7.85;80.14;100543.75;4975127;28;20038;-74
2022/10/03 09:25:04;;;;;;;3.50;1.70;;;;;;;7.82;80.80;100552.03;4962911;28;20046;-74
2022/10/03 09:27:59;;;;;;;5.00;2.23;;;;;;;7.69;80.80;100516.09;4979158;28;20045;-74
2022/10/03 09:30:45;;;;;;;2.57;1.40;;;;;;;7.75;81.38;100515.47;4978831;28;20038;-73
2022/10/03 09:33:32;;;;;;;2.13;1.93;;;;;;;7.91;80.88;100529.91;4978997;28;20454;-75
2022/10/03 09:36:24;;;;;;;3.13;2.27;;;;;;;7.96;81.09;100517.00;4980606;28;20462;-74
2022/10/03 09:39:01;;;;;;;2.77;2.00;;;;;;;7.93;81.43;100509.38;4978467;28;20113;-74
2022/10/03 09:41:30;;;;;;;2.90;2.70;;;;;;;7.96;80.95;100519.66;4980105;28;20063;-74
2022/10/03 09:44:43;;;;;;;2.60;2.27;;;;;;;7.89;81.98;100487.63;4975262;28;20089;-75
2022/10/03 09:47:44;;;;;;;3.95;2.13;;;;;;;7.88;82.05;100493.91;4956065;28;20434;-77
2022/10/03 09:50:31;;;;;;;3.63;2.17;;;;;;;7.89;81.83;100500.03;4973174;28;20035;-74
2022/10/03 09:53:34;;;;;;;4.73;1.77;;;;;;;7.84;82.26;100495.22;4955714;28;20031;-75
2022/10/03 09:56:05;;;;;;;2.40;1.83;;;;;;;7.76;82.20;100485.34;4973180;28;20045;-77
2022/10/03 09:58:55;;;;;;;5.70;2.00;;;;;;;7.74;82.59;100486.47;4972974;28;20035;-74
2022/10/03 10:01:37;;;;;;;4.37;1.90;;;;;;;7.68;82.80;100474.66;4972923;28;20074;-75
2022/10/03 10:04:36;;;;;;;3.27;2.03;;;;;;;7.73;83.49;100483.00;4972929;28;20085;-74
2022/10/03 10:07:39;;;;;;;2.20;2.00;;;;;;;7.66;83.22;100481.09;4955749;28;20035;-77
2022/10/03 10:10:41;;;;;;;7.87;2.40;;;;;;;7.60;83.40;100493.13;4972862;28;20030;-75
2022/10/03 10:13:19;;;;;;;1.57;1.30;;;;;;;7.57;83.05;100480.19;4973092;28;20031;-75
2022/10/03 10:15:50;;;;;;;4.63;1.93;;;;;;;7.58;83.77;100465.97;4972874;28;20470;-75
2022/10/03 10:18:31;;;;;;;1.87;1.47;;;;;;;7.58;83.92;100475.72;4973095;28;20026;-76
2022/10/03 10:21:19;;;;;;;4.20;2.10;;;;;;;7.56;84.09;100469.75;4972834;28;20023;-74
2022/10/03 10:24:03;;;;;;;1.50;1.40;;;;;;;7.61;84.46;100470.13;4972570;28;20040;-75
2022/10/03 10:27:07;;;;;;;2.83;2.00;;;;;;;7.59;84.22;100475.56;4957165;28;20261;-74
2022/10/03 10:29:41;;;;;;;2.13;1.80;;;;;;;7.56;84.01;100467.94;4926766;28;20356;-74
2022/10/03 10:32:42;;;;;;;3.53;2.10;;;;;;;7.59;84.02;100459.66;4976253;28;20027;-75
2022/10/03 10:35:29;;;;;;;1.93;1.73;;;;;;;7.60;84.79;100474.59;4976415;28;20591;-73
2022/10/03 10:38:01;;;;;;;2.40;2.20;;;;;;;7.58;84.25;100454.53;4975957;28;20134;-74
2022/10/03 10:40:39;;;;;;;2.37;2.00;;;;;;;7.58;84.58;100460.66;4975868;28;20023;-77
2022/10/03 10:43:35;;;;;;;2.28;1.92;;;;;;;7.57;84.83;100452.84;4976192;28;20037;-76
2022/10/03 10:46:31;;;;;;;3.20;2.37;;;;;;;7.55;84.85;100447.72;4976417;28;20395;-75
2022/10/03 10:49:12;;;;;;;7.57;2.53;;;;;;;7.57;85.33;100443.09;4976323;28;20023;-75
2022/10/03 10:52:10;;;;;;;2.03;1.80;;;;;;;7.58;85.45;100442.09;4976330;28;20041;-73
2022/10/03 10:55:02;;;;;;;3.53;2.40;;;;;;;7.57;84.70;100437.78;4958784;28;20074;-75
2022/10/03 10:57:44;;;;;;;1.97;1.70;;;;;;;7.52;84.67;100413.56;4942711;28;20140;-74
2022/10/03 11:00:32;;;;;;;2.23;1.47;;;;;;;7.54;84.50;100416.91;4976057;28;20038;-74
2022/10/03 11:03:14;;;;;;;4.10;2.80;;;;;;;7.50;84.45;100407.56;4975814;28;20055;-74
2022/10/03 11:05:52;;;;;;;7.40;2.10;;;;;;;7.57;84.17;100415.75;4976043;28;20419;-75
2022/10/03 11:08:48;;;;;;;4.93;2.00;;;;;;;7.57;83.81;100399.84;4975791;28;20042;-75
2022/10/03 11:11:58;;;;;;;1.77;1.60;;;;;;;7.56;83.89;100414.09;4975557;28;20031;-73
2022/10/03 11:14:53;;;;;;;10.57;2.20;;;;;;;7.52;83.99;100378.25;4878494;29;20056;-74
2022/10/03 11:17:37;;;;;;;1.70;1.60;;;;;;;7.54;84.22;100373.66;4936127;28;20035;-75
2022/10/03 11:20:12;;;;;;;4.47;1.93;;;;;;;7.56;83.77;100375.19;4975559;28;20122;-76
2022/10/03 11:22:49;;;;;;;4.40;1.83;;;;;;;7.59;83.67;100374.03;4975404;28;20038;-73
2022/10/03 11:25:39;;;;;;;3.70;1.90;;;;;;;7.59;83.53;100351.00;4975771;28;20359;-75
2022/10/03 11:28:49;;;;;;;5.10;2.00;;;;;;;7.60;82.82;100384.47;4975461;28;20118;-76
2022/10/03 11:31:39;;;;;;;6.60;2.23;;;;;;;7.63;83.40;100370.91;4975560;28;20042;-76
2022/10/03 11:34:48;;;;;;;2.70;1.60;;;;;;;7.63;82.76;100354.19;4975362;28;20038;-75
2022/10/03 11:37:28;;;;;;;2.87;1.80;;;;;;;7.66;82.92;100343.28;4975216;28;20034;-75
2022/10/03 11:40:09;;;;;;;2.57;2.13;;;;;;;7.71;82.51;100338.34;4970576;28;20026;-75
2022/10/03 11:42:56;;;;;;;1.97;1.60;;;;;;;7.74;82.04;100338.84;4983742;28;20031;-76
2022/10/03 11:46:00;;;;;;;2.00;1.73;;;;;;;7.64;82.31;100316.94;4961293;28;20045;-75
2022/10/03 11:48:40;;;;;;;;;;;;;;;7.72;81.37;100321.44;4975715;28;20049;-74
2022/10/03 11:51:09;;;;;;;6.43;1.80;;;;;;;7.72;82.14;100319.63;4973662;28;20004;-73
2022/10/03 11:53:37;;;;;;;3.30;2.17;;;;;;;7.70;81.76;100307.53;4973648;28;20027;-72
2022/10/03 11:56:22;;;;;;;2.20;2.00;;;;;;;7.72;81.21;100335.53;4984171;28;20032;-73
2022/10/03 11:58:55;;;;;;;2.87;2.23;;;;;;;7.71;81.45;100299.41;4994146;28;20034;-72
2022/10/03 12:01:36;;;;;;;1.97;1.87;;;;;;;7.78;81.59;100313.69;4994016;28;20038;-73
2022/10/03 12:04:26;;;;;;;6.30;1.80;;;;;;;7.81;81.00;100332.97;4993492;28;20111;-71
2022/10/03 12:10:00;;;;;;;4.60;2.43;;;;;;;7.77;81.50;100324.47;4991696;28;20583;-73
2022/10/03 12:12:42;;;;;;;1.53;1.30;;;;;;;7.78;81.59;100316.34;4973605;28;20053;-72
2022/10/03 12:15:26;;;;;;;2.20;2.07;;;;;;;7.77;82.52;100300.59;4974408;28;20027;-68
2022/10/03 12:18:04;;;;;;;3.03;1.53;;;;;;;7.75;81.64;100299.94;4974218;28;20512;-71
2022/10/03 12:21:04;;;;;;;2.00;1.50;;;;;;;7.73;82.13;100316.00;4974182;28;20109;-71
2022/10/03 12:23:44;;;;;;;3.00;1.70;;;;;;;7.72;82.20;100303.72;4974047;28;20038;-70
2022/10/03 12:26:16;;;;;;;1.63;1.47;;;;;;;7.69;82.54;100290.78;4974070;28;20039;-70
2022/10/03 12:28:45;;;;;;;3.23;1.73;;;;;;;7.63;83.46;100301.19;4974069;28;20041;-71
2022/10/03 12:31:22;;;;;;;2.10;1.70;;;;;;;7.55;84.35;100280.75;4973587;28;20090;-70
2022/10/03 12:33:57;;;;;;;5.00;1.97;;;;;;;7.57;84.22;100301.81;4956577;28;20118;-71
2022/10/03 12:36:39;;;;;;;2.60;1.70;;;;;;;7.51;84.39;100289.97;4940752;28;20486;-71
2022/10/03 12:39:33;;;;;;;4.80;1.87;;;;;;;7.52;85.00;100281.06;4973690;28;20378;-71
2022/10/03 12:42:17;;;;;;;3.97;1.70;;;;;;;7.49;85.51;100281.34;4973481;28;20038;-71
2022/10/03 12:44:58;;;;;;;3.37;2.50;;;;;;;7.47;85.56;100270.91;4973871;28;20072;-71
2022/10/03 12:48:00;;;;;;;2.17;1.97;;;;;;;7.44;86.78;100257.16;4956237;28;20159;-71
2022/10/03 12:51:00;;;;;;;4.10;1.73;;;;;;;7.33;87.02;100244.16;4956129;28;20035;-71
2022/10/03 12:53:40;;;;;;;2.27;1.63;;;;;;;7.28;87.39;100252.56;4974942;28;20474;-72
2022/10/03 12:56:18;;;;;;;2.17;1.60;;;;;;;7.26;87.25;100251.06;4993022;28;20026;-73
2022/10/03 12:58:56;;;;;;;6.70;1.87;;;;;;;7.32;87.70;100266.34;4975579;28;20026;-73
2022/10/03 13:01:41;;;;;;;3.30;1.60;;;;;;;7.25;87.93;100266.13;4992623;28;20058;-72
2022/10/03 13:04:34;;;;;;;2.03;1.90;;;;;;;7.21;88.53;100283.28;4992788;28;20096;-70
2022/10/03 13:07:18;;;;;;;5.27;2.03;;;;;;;7.14;88.96;100239.88;4957554;28;20045;-72
2022/10/03 13:09:47;;;;;;;2.47;2.17;;;;;;;7.11;89.83;100240.19;4979047;28;20438;-71
2022/10/03 13:12:33;;;;;;;;;;;;;;;7.17;89.64;100238.72;4973472;28;20042;-72
2022/10/03 13:15:32;;;;;;;1.90;1.50;;;;;;;7.10;91.45;100257.03;4973287;28;20494;-75
2022/10/03 13:18:21;;;;;;;2.10;1.57;;;;;;;7.05;91.36;100246.91;4973614;28;20045;-75